Time;durP1;ratioP1;P1;durP2;ratioP2;P2;SDS_P1;SDS_P2;PMS_P1;PMS_P2;Temp;Humidity;BMP_temperature;BMP_pressure;BME280_temperature;BME280_humidity;BME280_pressure;Samples;Min_cycle;Max_cycle;Signal;HPM_P1;HPM_P2
2021/01/03 00:01:29;;;;;;;41.67;15.70;;;;;;;3.42;54.99;101672.72;5017040;28;20038;-72
2021/01/03 00:03:55;;;;;;;41.30;17.35;;;;;;;3.49;54.88;101678.75;5015218;28;20044;-71
2021/01/03 00:06:21;;;;;;;36.75;13.65;;;;;;;3.50;55.17;101671.03;5013790;28;20468;-72
2021/01/03 00:08:48;;;;;;;34.80;16.08;;;;;;;3.51;54.56;101677.91;5013076;28;20034;-73
2021/01/03 00:11:14;;;;;;;38.42;17.02;;;;;;;3.50;54.93;101676.19;5019257;28;20037;-71
2021/01/03 00:13:39;;;;;;;38.35;16.58;;;;;;;3.50;54.89;101671.03;5015571;28;20440;-71
2021/01/03 00:16:05;;;;;;;39.90;16.73;;;;;;;3.55;54.93;101679.63;5013117;28;20038;-72
2021/01/03 00:18:30;;;;;;;36.40;15.35;;;;;;;3.48;54.66;101677.91;5014985;28;20083;-71
2021/01/03 00:20:56;;;;;;;40.40;15.88;;;;;;;3.49;54.94;101684.81;5014727;28;20034;-71
2021/01/03 00:23:22;;;;;;;35.97;15.00;;;;;;;3.48;54.64;101689.97;5013422;28;20121;-72
2021/01/03 00:25:48;;;;;;;38.55;16.15;;;;;;;3.56;54.61;101676.22;5011705;28;20033;-70
2021/01/03 00:28:14;;;;;;;39.90;15.38;;;;;;;3.52;54.70;101682.22;5014045;28;20137;-70
2021/01/03 00:30:40;;;;;;;38.30;15.07;;;;;;;3.55;54.96;101679.63;5012990;28;20022;-70
2021/01/03 00:33:06;;;;;;;45.13;18.55;;;;;;;3.41;55.27;101681.34;5014991;28;20034;-70
2021/01/03 00:35:34;;;;;;;42.95;15.68;;;;;;;3.33;55.32;101677.84;5013410;28;20095;-71
2021/01/03 00:38:02;;;;;;;42.88;16.58;;;;;;;3.39;55.05;101683.91;5013313;28;20426;-71
2021/01/03 00:40:28;;;;;;;45.42;16.58;;;;;;;3.31;55.10;101679.56;5015583;28;20025;-70
2021/01/03 00:42:54;;;;;;;39.67;16.25;;;;;;;3.43;55.16;101682.22;5012252;28;20037;-71
2021/01/03 00:45:20;;;;;;;47.95;18.17;;;;;;;3.45;54.87;101677.91;5015705;28;20037;-71
2021/01/03 00:47:46;;;;;;;43.42;18.25;;;;;;;3.52;54.80;101679.63;5012238;28;20052;-70
2021/01/03 00:50:13;;;;;;;47.60;18.05;;;;;;;3.52;54.53;101682.22;5016264;28;20034;-71
2021/01/03 00:52:39;;;;;;;41.60;16.83;;;;;;;3.53;54.92;101686.53;5010469;28;20026;-71
2021/01/03 00:55:07;;;;;;;42.40;15.82;;;;;;;3.53;54.99;101686.53;5012724;28;20614;-71
2021/01/03 00:57:33;;;;;;;48.55;19.50;;;;;;;3.52;54.71;101684.81;5016877;28;20050;-71
2021/01/03 00:59:58;;;;;;;45.20;18.23;;;;;;;3.50;55.10;101685.66;5016397;28;20031;-70
2021/01/03 01:02:24;;;;;;;46.88;19.20;;;;;;;3.45;55.15;101690.84;5021885;28;20030;-72
2021/01/03 01:04:49;;;;;;;47.03;18.67;;;;;;;3.41;55.22;101690.81;5015182;28;20114;-71
2021/01/03 01:07:15;;;;;;;55.65;19.27;;;;;;;3.41;55.36;101693.41;4989410;28;20065;-71
2021/01/03 01:09:40;;;;;;;51.05;19.45;;;;;;;3.45;55.18;101693.41;5010123;28;20045;-71
2021/01/03 01:12:06;;;;;;;43.35;18.45;;;;;;;3.54;55.02;101687.41;5013160;28;20026;-71
2021/01/03 01:14:32;;;;;;;51.05;19.80;;;;;;;3.50;55.10;101690.84;5015463;28;20032;-71
2021/01/03 01:16:58;;;;;;;51.05;19.92;;;;;;;3.53;54.84;101696.00;4998356;28;20034;-71
2021/01/03 01:19:24;;;;;;;52.83;19.90;;;;;;;3.52;54.83;101689.13;5019360;28;20029;-73
2021/01/03 01:21:49;;;;;;;51.90;19.98;;;;;;;3.50;54.78;101691.69;5015406;28;20040;-72
2021/01/03 01:24:15;;;;;;;51.33;19.48;;;;;;;3.48;54.88;101697.72;5014891;28;20026;-71
2021/01/03 01:26:40;;;;;;;54.20;19.50;;;;;;;3.51;54.86;101696.00;5003265;28;20036;-71
2021/01/03 01:29:06;;;;;;;43.95;19.65;;;;;;;3.49;54.68;101699.44;5017029;28;20440;-72
2021/01/03 01:31:31;;;;;;;50.15;18.40;;;;;;;3.48;55.07;101697.72;5012468;28;20188;-71
2021/01/03 01:33:57;;;;;;;59.47;19.40;;;;;;;3.50;54.88;101702.03;5013880;28;20038;-71
2021/01/03 01:36:22;;;;;;;51.97;20.33;;;;;;;3.49;54.82;101700.31;5018772;28;20029;-70
2021/01/03 01:38:48;;;;;;;50.78;19.55;;;;;;;3.46;55.15;101707.19;5014721;28;20030;-72
2021/01/03 01:41:13;;;;;;;48.55;19.45;;;;;;;3.40;55.08;101708.03;5016510;28;20384;-73
2021/01/03 01:43:39;;;;;;;49.67;19.13;;;;;;;3.41;55.19;101702.00;5019393;28;20038;-73
2021/01/03 01:46:05;;;;;;;43.42;18.25;;;;;;;3.53;54.48;101711.50;5014885;28;20040;-70
2021/01/03 01:48:38;;;;;;;51.92;17.98;;;;;;;3.44;54.77;101707.19;5000694;28;20295;-70
2021/01/03 01:51:17;;;;;;;51.92;18.90;;;;;;;3.48;54.66;101714.09;5018136;28;20057;-71
2021/01/03 01:54:03;;;;;;;47.63;18.15;;;;;;;3.32;55.17;101712.31;5017051;28;20096;-72
2021/01/03 01:56:43;;;;;;;47.25;17.85;;;;;;;3.44;54.72;101712.34;5015759;28;20040;-73
2021/01/03 01:59:17;;;;;;;45.03;17.88;;;;;;;3.47;54.61;101714.06;5014809;28;20052;-72
2021/01/03 02:02:08;;;;;;;48.03;17.98;;;;;;;3.46;54.61;101714.94;4996617;28;20117;-72
2021/01/03 02:04:39;;;;;;;46.03;16.67;;;;;;;3.47;54.39;101714.97;5033577;28;20052;-70
2021/01/03 02:07:14;;;;;;;43.08;16.48;;;;;;;3.46;54.62;101715.81;5020412;28;20285;-71
2021/01/03 02:10:04;;;;;;;44.28;18.17;;;;;;;3.48;54.71;101719.25;5012916;28;20037;-71
2021/01/03 02:12:37;;;;;;;48.10;18.83;;;;;;;3.48;54.61;101713.22;5030432;28;20064;-71
2021/01/03 02:15:11;;;;;;;51.90;19.90;;;;;;;3.46;54.64;101710.63;5015786;28;20029;-71
2021/01/03 02:17:37;;;;;;;43.85;18.75;;;;;;;3.37;55.06;101715.78;5027093;28;20046;-70
2021/01/03 02:20:03;;;;;;;49.35;19.15;;;;;;;3.29;55.21;101713.19;5014577;28;20483;-71
2021/01/03 02:22:43;;;;;;;44.50;19.52;;;;;;;3.39;55.18;101709.75;5016159;28;20038;-70
2021/01/03 02:25:12;;;;;;;53.33;19.67;;;;;;;3.43;54.60;101712.38;5016895;28;20034;-70
2021/01/03 02:27:54;;;;;;;49.35;18.13;;;;;;;3.39;54.89;101714.06;5013628;28;20049;-71
2021/01/03 02:30:21;;;;;;;42.45;17.88;;;;;;;3.34;54.57;101710.63;5013239;28;20034;-70
2021/01/03 02:32:49;;;;;;;41.33;17.75;;;;;;;3.39;54.61;101703.72;5011873;28;20038;-70
2021/01/03 02:35:18;;;;;;;51.10;19.38;;;;;;;3.48;54.56;101708.91;5029691;28;20033;-70
2021/01/03 02:37:48;;;;;;;49.55;19.38;;;;;;;3.50;54.63;101712.38;5001211;28;20034;-71
2021/01/03 02:40:13;;;;;;;41.88;18.52;;;;;;;3.43;54.61;101709.78;5014317;28;20037;-71
2021/01/03 02:42:41;;;;;;;45.25;19.38;;;;;;;3.39;54.72;101707.16;5013304;28;20073;-71
2021/01/03 02:45:12;;;;;;;48.58;20.60;;;;;;;3.41;54.85;101714.06;5012978;28;20088;-71
2021/01/03 02:47:39;;;;;;;50.05;19.27;;;;;;;3.35;55.13;101712.31;5012790;28;20037;-70
2021/01/03 02:50:11;;;;;;;51.85;17.40;;;;;;;3.48;54.83;101708.91;5014546;28;20088;-70
2021/01/03 02:52:40;;;;;;;40.45;17.15;;;;;;;3.32;55.32;101717.50;5015188;28;20050;-70
2021/01/03 02:55:08;;;;;;;47.67;19.50;;;;;;;3.33;55.12;101708.88;5029036;28;20073;-70
2021/01/03 02:57:34;;;;;;;52.42;17.75;;;;;;;3.55;54.60;101709.81;5012735;28;20065;-70
2021/01/03 02:59:59;;;;;;;49.80;19.60;;;;;;;3.60;54.54;101713.25;5016399;28;20458;-71
2021/01/03 03:02:25;;;;;;;51.20;18.75;;;;;;;3.57;54.71;101715.84;4994650;28;20040;-70
2021/01/03 03:04:50;;;;;;;45.85;18.15;;;;;;;3.64;54.32;101714.13;5009782;28;20070;-70
2021/01/03 03:07:16;;;;;;;55.03;20.42;;;;;;;3.64;54.05;101714.13;5011625;28;20037;-71
2021/01/03 03:09:42;;;;;;;50.03;18.20;;;;;;;3.67;54.05;101706.38;5013417;28;20042;-70
2021/01/03 03:12:08;;;;;;;50.47;18.80;;;;;;;3.67;54.26;101714.13;5010747;28;20039;-70
2021/01/03 03:14:34;;;;;;;45.35;18.75;;;;;;;3.52;54.47;101705.50;4996261;28;20061;-70
2021/01/03 03:17:01;;;;;;;46.60;16.27;;;;;;;3.53;54.37;101711.50;5010720;28;20033;-71
2021/01/03 03:19:27;;;;;;;45.83;17.10;;;;;;;3.50;54.58;101702.03;5013822;28;20453;-71
2021/01/03 03:21:53;;;;;;;51.17;18.42;;;;;;;3.59;54.35;101707.22;5011351;28;20069;-71
2021/01/03 03:24:20;;;;;;;48.00;17.67;;;;;;;3.58;54.17;101705.50;4994753;28;20494;-71
2021/01/03 03:26:56;;;;;;;47.15;17.77;;;;;;;3.59;54.47;101704.63;4994570;28;20112;-71
2021/01/03 03:29:23;;;;;;;46.67;17.08;;;;;;;3.46;54.76;101710.63;5000315;28;20030;-71
2021/01/03 03:31:50;;;;;;;43.88;18.25;;;;;;;3.50;54.71;101707.22;5013171;28;20037;-70
2021/01/03 03:34:16;;;;;;;51.53;18.52;;;;;;;3.64;54.31;101704.66;5029143;28;20053;-71
2021/01/03 03:36:42;;;;;;;52.13;20.20;;;;;;;3.63;54.09;101705.53;5019236;28;20042;-71
2021/01/03 03:39:08;;;;;;;54.65;18.80;;;;;;;3.62;54.60;101710.69;5010369;28;20479;-70
2021/01/03 03:41:34;;;;;;;54.08;17.63;;;;;;;3.65;54.57;101711.56;5014603;28;20471;-70
2021/01/03 03:44:00;;;;;;;44.25;18.50;;;;;;;3.59;54.54;101709.81;5012636;28;20037;-70
2021/01/03 03:46:25;;;;;;;51.92;18.13;;;;;;;3.68;54.23;101713.28;5010766;28;20041;-70
2021/01/03 03:48:51;;;;;;;64.88;18.40;;;;;;;3.66;54.20;101715.00;5008904;28;20395;-70
2021/01/03 03:51:18;;;;;;;50.85;18.25;;;;;;;3.65;54.55;101715.84;5010763;28;20038;-70
2021/01/03 03:53:44;;;;;;;47.47;18.23;;;;;;;3.62;54.56;101716.72;5014687;28;20487;-70
2021/01/03 03:56:13;;;;;;;53.20;19.48;;;;;;;3.73;53.74;101717.59;5018116;28;20037;-70
2021/01/03 03:58:39;;;;;;;54.83;19.15;;;;;;;3.75;53.87;101713.28;5021223;28;20407;-71
2021/01/03 04:01:06;;;;;;;58.25;17.60;;;;;;;3.52;54.78;101715.81;5028352;28;20054;-70
2021/01/03 04:03:31;;;;;;;51.20;19.25;;;;;;;3.60;54.57;101713.25;5015155;28;20084;-70
2021/01/03 04:05:57;;;;;;;55.88;18.90;;;;;;;3.82;53.80;101719.34;5011261;28;20037;-71
2021/01/03 04:08:23;;;;;;;61.35;19.92;;;;;;;3.80;53.88;101718.47;5015016;28;20030;-71
2021/01/03 04:10:48;;;;;;;51.45;19.27;;;;;;;3.84;53.81;101721.94;5011412;28;20026;-70
2021/01/03 04:13:14;;;;;;;44.30;16.65;;;;;;;3.68;53.99;101721.91;5013539;28;20140;-70
2021/01/03 04:15:40;;;;;;;46.70;17.95;;;;;;;3.81;53.47;101722.78;5010391;28;20038;-71
2021/01/03 04:18:06;;;;;;;47.88;17.85;;;;;;;3.75;54.18;101717.59;5012095;28;20030;-70
2021/01/03 04:20:32;;;;;;;37.92;16.55;;;;;;;3.74;53.79;101721.06;5013529;28;20132;-70
2021/01/03 04:22:59;;;;;;;49.95;16.70;;;;;;;3.65;54.24;101721.00;5026875;28;20042;-70
2021/01/03 04:25:24;;;;;;;49.92;15.35;;;;;;;3.67;54.14;101720.19;5012348;28;20037;-71
2021/01/03 04:27:54;;;;;;;43.45;15.88;;;;;;;3.79;53.64;101720.19;5010041;28;20121;-70
2021/01/03 04:30:21;;;;;;;44.25;15.57;;;;;;;3.55;53.58;101717.56;5012245;28;20049;-70
2021/01/03 04:32:47;;;;;;;39.28;13.93;;;;;;;3.69;53.41;101726.19;5012611;28;20037;-70
2021/01/03 04:35:13;;;;;;;42.13;14.93;;;;;;;3.74;53.23;101726.25;5014677;28;20043;-70
2021/01/03 04:37:39;;;;;;;36.83;13.93;;;;;;;3.58;53.65;101723.59;5013512;28;20099;-71
2021/01/03 04:40:07;;;;;;;35.58;11.90;;;;;;;3.47;53.63;101735.63;5012472;28;20026;-71
2021/01/03 04:42:34;;;;;;;36.67;13.10;;;;;;;3.69;53.31;101733.09;5011707;28;20038;-70
2021/01/03 04:45:16;;;;;;;36.83;13.55;;;;;;;3.55;53.63;101736.50;5013127;28;20395;-71
2021/01/03 04:47:54;;;;;;;37.38;13.77;;;;;;;3.48;53.63;101732.19;5011404;28;20434;-71
2021/01/03 04:50:44;;;;;;;33.63;13.00;;;;;;;3.58;53.47;101743.41;5017882;28;20038;-70
2021/01/03 04:53:31;;;;;;;40.47;14.15;;;;;;;3.48;53.65;101739.94;5028919;28;20533;-72
2021/01/03 04:56:07;;;;;;;35.22;13.45;;;;;;;3.58;53.35;101739.13;5014948;28;20029;-70
2021/01/03 04:58:53;;;;;;;32.47;13.02;;;;;;;3.53;53.77;101737.38;5012080;28;20034;-69
2021/01/03 05:01:37;;;;;;;43.65;14.70;;;;;;;3.54;53.88;101742.56;5013551;28;20143;-70
2021/01/03 05:04:34;;;;;;;48.70;16.08;;;;;;;3.44;53.75;101745.94;5016580;28;20026;-70
2021/01/03 05:07:08;;;;;;;42.85;16.17;;;;;;;3.54;53.64;101745.13;5016036;28;20026;-72
2021/01/03 05:09:33;;;;;;;42.67;16.25;;;;;;;3.57;53.41;101742.53;5017268;28;20029;-70
2021/01/03 05:12:10;;;;;;;44.45;15.70;;;;;;;3.38;53.78;101749.38;5000442;28;20033;-70
2021/01/03 05:14:43;;;;;;;46.15;14.52;;;;;;;3.38;53.71;101745.91;5013727;28;20472;-72
2021/01/03 05:17:08;;;;;;;38.60;14.30;;;;;;;3.49;53.43;101748.53;5017988;28;20052;-69
2021/01/03 05:19:34;;;;;;;42.72;15.93;;;;;;;3.49;53.59;101740.78;5018212;28;20065;-70
2021/01/03 05:21:59;;;;;;;39.55;16.27;;;;;;;3.40;54.00;101746.78;5016327;28;20500;-70
2021/01/03 05:24:29;;;;;;;39.58;14.80;;;;;;;3.47;53.79;101747.66;5016131;28;20057;-70
2021/01/03 05:26:55;;;;;;;47.80;16.38;;;;;;;3.50;53.62;101753.72;5015571;28;20034;-70
2021/01/03 05:29:30;;;;;;;39.47;14.98;;;;;;;3.54;53.27;101750.31;5013388;28;20026;-70
2021/01/03 05:31:59;;;;;;;46.90;15.90;;;;;;;3.43;53.67;101756.31;5011033;28;20030;-70
2021/01/03 05:34:35;;;;;;;51.08;15.27;;;;;;;3.56;53.03;101764.09;5000745;28;20063;-70
2021/01/03 05:37:06;;;;;;;38.50;14.32;;;;;;;3.64;53.23;101764.09;5017486;28;20045;-70
2021/01/03 05:39:34;;;;;;;28.25;10.98;;;;;;;3.55;53.50;101757.19;5014030;28;20030;-70
2021/01/03 05:42:14;;;;;;;46.08;14.30;;;;;;;3.50;53.39;101761.47;5015034;28;20038;-70
2021/01/03 05:44:43;;;;;;;44.95;17.58;;;;;;;3.47;53.56;101764.06;4999274;28;20030;-70
2021/01/03 05:47:15;;;;;;;41.35;13.25;;;;;;;3.57;53.26;101764.97;5015831;28;20053;-70
2021/01/03 05:49:44;;;;;;;37.10;15.27;;;;;;;3.54;53.54;101764.97;5016489;28;20534;-69
2021/01/03 05:52:13;;;;;;;44.33;15.98;;;;;;;3.38;53.73;101764.00;5017783;28;20101;-70
2021/01/03 05:54:40;;;;;;;35.33;14.63;;;;;;;3.43;53.78;101766.63;5015866;28;20065;-70
2021/01/03 05:57:10;;;;;;;37.67;14.30;;;;;;;3.55;53.25;101766.66;5013564;28;20121;-70
2021/01/03 05:59:38;;;;;;;34.10;14.88;;;;;;;3.52;53.10;101764.94;4993803;28;20288;-70
2021/01/03 06:02:10;;;;;;;42.00;14.57;;;;;;;3.45;53.60;101770.94;5013079;28;20036;-70
2021/01/03 06:04:36;;;;;;;42.70;15.55;;;;;;;3.48;53.19;101776.13;5028869;28;20117;-71
2021/01/03 06:07:28;;;;;;;43.13;15.32;;;;;;;3.30;53.92;101781.22;5016999;28;20072;-70
2021/01/03 06:09:53;;;;;;;40.92;14.45;;;;;;;3.42;53.61;101785.56;5006285;28;20045;-70
2021/01/03 06:12:23;;;;;;;37.25;13.57;;;;;;;3.21;54.19;101781.16;5014902;28;20033;-69
2021/01/03 06:14:56;;;;;;;35.97;14.88;;;;;;;3.36;53.50;101781.25;4997315;28;20057;-70
2021/01/03 06:17:43;;;;;;;41.17;15.93;;;;;;;3.31;53.89;101788.09;5013979;28;20554;-70
2021/01/03 06:20:25;;;;;;;35.75;14.13;;;;;;;3.35;53.39;101790.69;5016058;28;20483;-70
2021/01/03 06:22:59;;;;;;;43.28;14.13;;;;;;;3.27;53.86;101791.47;5019141;28;20042;-69
2021/01/03 06:25:56;;;;;;;38.17;13.68;;;;;;;3.34;53.64;101788.13;5016059;28;20471;-72
2021/01/03 06:28:21;;;;;;;40.45;13.93;;;;;;;3.29;53.48;101790.69;5019692;28;20037;-70
2021/01/03 06:31:10;;;;;;;38.95;14.75;;;;;;;3.29;53.23;101794.97;5018232;28;20037;-70
2021/01/03 06:33:58;;;;;;;38.60;14.35;;;;;;;3.32;53.42;101789.84;5009801;28;20436;-72
2021/01/03 06:36:39;;;;;;;40.33;13.65;;;;;;;3.26;53.46;101805.28;5017790;28;20040;-69
2021/01/03 06:39:27;;;;;;;37.13;15.00;;;;;;;3.21;53.44;101806.97;5020911;28;20586;-70
2021/01/03 06:42:06;;;;;;;48.35;16.08;;;;;;;3.23;53.21;101810.44;5013144;28;20050;-70
2021/01/03 06:45:09;;;;;;;49.28;17.40;;;;;;;3.17;53.19;101811.25;5007133;28;20069;-70
2021/01/03 06:48:04;;;;;;;44.75;15.48;;;;;;;2.79;54.28;101818.75;4996830;28;20053;-71
2021/01/03 06:51:03;;;;;;;40.55;14.38;;;;;;;3.08;53.58;101822.38;4996411;28;20076;-70
2021/01/03 06:53:48;;;;;;;46.65;14.23;;;;;;;2.96;53.40;101823.19;5023162;28;20453;-70
2021/01/03 06:56:26;;;;;;;44.28;15.55;;;;;;;3.19;53.18;101819.88;5004158;28;20038;-70
2021/01/03 06:59:21;;;;;;;42.63;15.93;;;;;;;3.11;53.35;101822.44;5016682;28;20021;-69
2021/01/03 07:01:48;;;;;;;42.60;14.20;;;;;;;2.94;53.45;101829.19;5005449;28;20025;-71
2021/01/03 07:04:22;;;;;;;40.75;15.40;;;;;;;3.01;52.62;101830.97;5016639;28;20041;-71
2021/01/03 07:06:49;;;;;;;37.75;12.73;;;;;;;3.03;52.90;101834.41;5012555;28;20036;-70
2021/01/03 07:09:15;;;;;;;37.00;13.73;;;;;;;3.01;53.08;101828.38;5010572;28;20395;-72
2021/01/03 07:11:50;;;;;;;38.38;14.75;;;;;;;2.93;53.23;101830.03;5009485;28;20030;-71
2021/01/03 07:14:19;;;;;;;38.38;15.23;;;;;;;2.57;53.99;101834.03;5011424;28;20387;-71
2021/01/03 07:16:50;;;;;;;39.75;14.43;;;;;;;2.73;53.63;101838.50;5011426;28;20061;-71
2021/01/03 07:19:25;;;;;;;38.30;15.70;;;;;;;2.68;54.04;101837.59;4999028;28;20039;-71
2021/01/03 07:21:51;;;;;;;42.15;14.70;;;;;;;2.87;53.59;101832.59;4994737;28;20044;-70
2021/01/03 07:24:26;;;;;;;44.35;14.27;;;;;;;3.12;52.70;101838.78;5012664;28;20093;-71
2021/01/03 07:27:31;;;;;;;42.47;14.63;;;;;;;3.16;52.82;101846.56;5010139;28;20033;-71
2021/01/03 07:29:56;;;;;;;37.85;14.43;;;;;;;3.12;53.17;101844.81;5012671;28;20030;-71
2021/01/03 07:32:28;;;;;;;34.70;14.55;;;;;;;2.90;53.41;101848.09;5013158;28;20041;-72
2021/01/03 07:34:54;;;;;;;44.28;15.52;;;;;;;2.99;53.58;101850.75;5011515;28;20114;-72
2021/01/03 07:37:25;;;;;;;43.05;14.25;;;;;;;3.15;52.99;101849.97;5029176;28;20092;-70
2021/01/03 07:40:13;;;;;;;48.27;14.20;;;;;;;3.29;52.80;101851.81;5016035;28;20034;-70
2021/01/03 07:42:44;;;;;;;41.65;13.73;;;;;;;3.28;53.05;101855.25;5012431;28;20547;-71
2021/01/03 07:45:13;;;;;;;42.35;13.65;;;;;;;3.33;52.85;101858.75;5012652;28;20081;-71
2021/01/03 07:47:52;;;;;;;35.53;11.48;;;;;;;3.26;53.11;101867.28;5010365;28;20107;-70
2021/01/03 07:50:17;;;;;;;30.67;10.02;;;;;;;3.22;53.06;101865.53;5015419;28;20040;-71
2021/01/03 07:52:47;;;;;;;32.88;8.70;;;;;;;2.98;53.81;101867.09;5010575;28;20057;-70
2021/01/03 07:55:23;;;;;;;22.70;7.88;;;;;;;3.05;53.51;101868.88;5011559;28;20044;-70
2021/01/03 07:57:56;;;;;;;25.33;8.07;;;;;;;2.87;53.69;101871.31;4991684;28;20033;-71
2021/01/03 08:00:22;;;;;;;22.17;7.65;;;;;;;2.91;53.69;101873.06;5014746;28;20064;-70
2021/01/03 08:02:54;;;;;;;26.10;7.63;;;;;;;3.09;53.22;101880.06;5013765;28;20033;-71
2021/01/03 08:05:21;;;;;;;22.05;8.30;;;;;;;3.03;53.51;101885.22;5010676;28;20373;-70
2021/01/03 08:07:48;;;;;;;21.92;7.57;;;;;;;2.93;53.79;101889.44;5008598;28;20038;-70
2021/01/03 08:10:14;;;;;;;21.77;8.50;;;;;;;3.08;53.21;101892.13;5007937;28;20038;-71
2021/01/03 08:12:53;;;;;;;28.13;7.97;;;;;;;3.06;53.11;101891.25;5009840;28;20034;-71
2021/01/03 08:15:29;;;;;;;21.90;7.55;;;;;;;2.99;53.00;101897.22;5007289;28;20034;-71
2021/01/03 08:18:01;;;;;;;22.83;6.85;;;;;;;3.04;53.15;101895.53;4994531;28;20033;-72
2021/01/03 08:20:27;;;;;;;41.42;8.85;;;;;;;2.80;53.92;101897.91;5011470;28;20025;-71
2021/01/03 08:22:52;;;;;;;16.23;6.68;;;;;;;2.89;53.33;101905.75;5014082;22;20026;-71
2021/01/03 08:25:24;;;;;;;12.00;5.68;;;;;;;2.96;53.06;101902.38;5028955;28;20086;-70
2021/01/03 08:27:59;;;;;;;15.05;6.32;;;;;;;3.10;52.45;101903.34;5022862;28;20052;-71
2021/01/03 08:30:25;;;;;;;18.42;6.50;;;;;;;3.01;52.62;101903.28;5041555;28;20137;-71
2021/01/03 08:32:51;;;;;;;16.73;6.10;;;;;;;2.98;52.25;101913.59;5030213;28;20104;-71
2021/01/03 08:35:28;;;;;;;14.45;6.03;;;;;;;3.12;52.12;101906.81;5022782;28;20076;-70
2021/01/03 08:37:54;;;;;;;17.08;7.60;;;;;;;3.04;52.06;101912.75;5026105;28;20033;-70
2021/01/03 08:40:22;;;;;;;16.50;8.05;;;;;;;3.13;52.28;101911.09;5024568;28;20040;-70
2021/01/03 08:42:54;;;;;;;19.98;7.18;;;;;;;3.01;52.80;101915.34;5024037;28;20065;-70
2021/01/03 08:45:34;;;;;;;14.88;6.78;;;;;;;2.93;52.76;101910.94;5024957;28;20052;-71
2021/01/03 08:48:02;;;;;;;17.35;5.90;;;;;;;2.98;52.56;101924.78;5032473;28;20034;-70
2021/01/03 08:50:33;;;;;;;12.05;7.07;;;;;;;2.83;52.60;101919.47;5023346;28;20041;-70
2021/01/03 08:53:10;;;;;;;16.63;6.72;;;;;;;3.04;52.35;101923.94;5017587;28;20725;-71
2021/01/03 08:55:39;;;;;;;19.63;8.02;;;;;;;2.93;52.36;101923.00;5016376;28;20030;-71
2021/01/03 08:58:10;;;;;;;12.90;5.82;;;;;;;2.93;52.38;101917.84;5019786;28;20037;-71
2021/01/03 09:00:39;;;;;;;8.67;4.07;;;;;;;3.04;51.68;101921.38;5020095;28;20068;-71
2021/01/03 09:03:09;;;;;;;13.10;6.55;;;;;;;3.03;51.56;101923.97;5017027;28;20030;-70
2021/01/03 09:05:36;;;;;;;15.10;5.88;;;;;;;2.75;51.76;101921.97;5038489;28;20037;-71
2021/01/03 09:08:05;;;;;;;11.55;6.22;;;;;;;2.90;51.58;101923.84;5004034;28;20102;-71
2021/01/03 09:10:41;;;;;;;15.32;6.53;;;;;;;3.10;51.18;101933.47;5036404;28;20048;-71
2021/01/03 09:13:27;;;;;;;12.02;5.00;;;;;;;3.21;50.48;101928.41;5016151;28;20048;-71
2021/01/03 09:15:57;;;;;;;25.83;10.63;;;;;;;3.04;50.66;101936.00;5021894;28;20033;-70
2021/01/03 09:18:43;;;;;;;12.30;6.43;;;;;;;2.87;50.69;101935.88;5024062;28;20057;-71
2021/01/03 09:21:11;;;;;;;12.43;5.47;;;;;;;2.58;50.88;101933.88;5018493;28;20061;-70
2021/01/03 09:23:41;;;;;;;13.93;4.78;;;;;;;3.17;49.88;101941.28;5018366;28;20077;-71
2021/01/03 09:26:07;;;;;;;10.05;4.65;;;;;;;3.31;49.44;101940.56;5017985;28;20475;-71
2021/01/03 09:28:39;;;;;;;12.30;5.70;;;;;;;3.19;49.94;101944.75;5016859;28;20026;-71
2021/01/03 09:31:17;;;;;;;;;;;;;;;3.26;49.65;101950.81;5023405;28;20037;-71
2021/01/03 09:34:07;;;;;;;12.00;5.55;;;;;;;2.95;51.02;101947.97;5020651;28;20503;-71
2021/01/03 09:36:58;;;;;;;10.07;4.70;;;;;;;2.80;51.48;101950.44;5014486;28;20026;-71
2021/01/03 09:39:56;;;;;;;9.88;4.97;;;;;;;2.88;51.33;101950.50;5014514;28;20135;-71
2021/01/03 09:42:39;;;;;;;9.60;5.60;;;;;;;2.97;51.29;101951.44;5021273;28;20042;-71
2021/01/03 09:45:24;;;;;;;14.93;5.80;;;;;;;3.18;50.95;101943.03;5015924;28;20037;-71
2021/01/03 09:47:50;;;;;;;11.82;5.03;;;;;;;2.97;51.31;101954.03;5026531;28;20088;-71
2021/01/03 09:50:42;;;;;;;12.05;5.60;;;;;;;3.25;50.79;101954.28;5015793;28;20029;-71
2021/01/03 09:53:08;;;;;;;8.93;3.85;;;;;;;3.27;50.50;101956.84;5019369;28;20077;-71
2021/01/03 09:55:39;;;;;;;9.48;4.20;;;;;;;2.84;51.29;101964.22;5030354;28;20064;-71
2021/01/03 09:58:07;;;;;;;8.18;4.38;;;;;;;2.84;50.90;101961.66;5018547;28;20080;-71
2021/01/03 10:00:47;;;;;;;10.55;3.88;;;;;;;2.70;50.50;101954.63;5019905;28;20141;-73
2021/01/03 10:03:16;;;;;;;7.50;4.45;;;;;;;2.86;50.32;101954.78;5020731;28;20040;-71
2021/01/03 10:05:42;;;;;;;9.05;3.58;;;;;;;2.94;50.19;101958.31;5012947;28;20041;-70
2021/01/03 10:08:14;;;;;;;11.95;4.93;;;;;;;3.18;49.75;101953.38;5018381;28;20037;-71
2021/01/03 10:10:47;;;;;;;9.48;4.38;;;;;;;3.51;49.06;101957.06;5031135;28;20127;-71
2021/01/03 10:13:14;;;;;;;8.30;4.65;;;;;;;3.29;49.48;101957.75;5021422;28;20050;-71
2021/01/03 10:15:41;;;;;;;11.80;5.40;;;;;;;3.57;48.96;101962.28;5018170;28;20041;-71
2021/01/03 10:18:13;;;;;;;7.88;4.57;;;;;;;3.34;49.59;101959.53;5023691;28;20029;-71
2021/01/03 10:20:46;;;;;;;;;;;;;;;3.47;49.09;101955.34;5017589;28;20474;-71
2021/01/03 10:23:34;;;;;;;7.30;3.63;;;;;;;3.29;49.36;101960.34;5017499;28;19986;-72
2021/01/03 10:26:01;;;;;;;10.25;5.40;;;;;;;3.03;49.61;101960.97;5028129;28;20064;-71
2021/01/03 10:28:26;;;;;;;8.85;4.45;;;;;;;3.07;49.66;101960.16;5032874;28;20037;-70
2021/01/03 10:30:52;;;;;;;12.30;5.30;;;;;;;3.01;49.75;101965.25;5020624;28;20033;-72
2021/01/03 10:33:17;;;;;;;11.30;5.68;;;;;;;2.67;50.49;101964.94;5025551;28;20713;-71
2021/01/03 10:35:43;;;;;;;14.65;6.63;;;;;;;3.25;49.54;101963.72;5015855;28;20045;-71
2021/01/03 10:38:09;;;;;;;12.98;6.28;;;;;;;3.19;49.18;101961.97;5017393;28;20068;-71
2021/01/03 10:40:35;;;;;;;11.93;5.50;;;;;;;2.96;50.38;101965.22;5013110;28;20040;-71
2021/01/03 10:43:01;;;;;;;9.70;4.32;;;;;;;2.80;50.28;101959.88;5018414;28;20425;-71
2021/01/03 10:45:27;;;;;;;10.00;4.60;;;;;;;2.65;50.78;101956.31;5018869;28;20030;-71
2021/01/03 10:47:53;;;;;;;12.77;4.68;;;;;;;2.61;50.62;101964.88;5033142;28;20604;-70
2021/01/03 10:50:21;;;;;;;15.25;5.20;;;;;;;2.70;50.37;101959.78;5018505;28;23190;-71
2021/01/03 10:52:48;;;;;;;12.93;4.68;;;;;;;2.98;49.86;101962.66;5019514;28;20050;-71
2021/01/03 10:55:17;;;;;;;9.75;4.93;;;;;;;2.82;49.60;101963.34;5018218;28;20057;-72
2021/01/03 10:57:43;;;;;;;10.30;4.72;;;;;;;2.80;49.60;101960.78;5020139;28;20441;-71
2021/01/03 11:00:10;;;;;;;12.27;5.38;;;;;;;2.82;49.62;101958.19;5017761;28;20068;-70
2021/01/03 11:02:36;;;;;;;16.42;5.43;;;;;;;3.05;49.15;101961.84;5013010;28;20032;-71
2021/01/03 11:05:04;;;;;;;16.17;5.45;;;;;;;3.08;48.78;101961.88;5013946;28;20042;-70
2021/01/03 11:07:29;;;;;;;10.35;3.95;;;;;;;3.10;48.75;101960.16;5033645;28;20116;-71
2021/01/03 11:09:55;;;;;;;10.45;5.78;;;;;;;2.96;49.11;101956.63;5019454;28;20125;-71
2021/01/03 11:12:22;;;;;;;9.77;4.22;;;;;;;3.19;48.63;101957.66;5032868;28;20454;-71
2021/01/03 11:14:47;;;;;;;7.20;4.05;;;;;;;3.25;48.11;101955.97;5018368;28;20116;-71
2021/01/03 11:17:15;;;;;;;8.35;4.18;;;;;;;3.27;48.47;101962.03;5018624;28;20074;-71
2021/01/03 11:19:41;;;;;;;10.05;5.00;;;;;;;3.33;48.46;101951.78;5020881;28;20033;-71
2021/01/03 11:22:10;;;;;;;8.30;4.15;;;;;;;2.98;49.21;101944.59;5030995;28;20617;-71
2021/01/03 11:24:36;;;;;;;9.23;4.15;;;;;;;3.30;48.69;101944.88;5020075;28;20029;-72
2021/01/03 11:27:04;;;;;;;9.50;4.82;;;;;;;3.38;48.91;101944.91;5018601;28;20116;-71
2021/01/03 11:29:30;;;;;;;9.52;4.45;;;;;;;3.54;48.17;101951.06;5031557;28;20273;-72
2021/01/03 11:31:58;;;;;;;8.48;3.90;;;;;;;3.51;47.67;101949.31;5016917;28;20614;-72
2021/01/03 11:34:27;;;;;;;6.50;3.33;;;;;;;3.25;48.72;101940.47;5017560;28;20034;-72
2021/01/03 11:36:56;;;;;;;11.07;4.05;;;;;;;3.57;48.00;101944.19;5017127;28;20045;-71
2021/01/03 11:39:23;;;;;;;10.77;4.13;;;;;;;3.46;48.31;101948.41;5030554;28;20038;-70